Time;durP1;ratioP1;P1;durP2;ratioP2;P2;SDS_P1;SDS_P2;PMS_P1;PMS_P2;Temp;Humidity;BMP_temperature;BMP_pressure;BME280_temperature;BME280_humidity;BME280_pressure;Samples;Min_cycle;Max_cycle;Signal;HPM_P1;HPM_P2
2022/05/27 00:00:08;;;;;;;;;;;;;;;21.70;52.03;100574.28;2069705;28;20303;-57
2022/05/27 00:01:09;;;;;;;;;;;;;;;21.70;51.92;100574.28;2067220;28;19970;-57
2022/05/27 00:02:10;;;;;;;;;;;;;;;21.70;51.83;100576.16;2070325;28;19924;-57
2022/05/27 00:03:11;;;;;;;;;;;;;;;21.70;52.03;100574.28;2065498;28;19925;-58
2022/05/27 00:04:12;;;;;;;;;;;;;;;21.71;51.78;100575.16;2068296;28;19928;-57
2022/05/27 00:05:12;;;;;;;;;;;;;;;21.70;52.07;100577.03;2064992;28;20101;-58
2022/05/27 00:06:12;;;;;;;;;;;;;;;21.69;51.88;100578.06;2066477;28;19921;-58
2022/05/27 00:07:13;;;;;;;;;;;;;;;21.70;51.98;100568.78;2062227;28;20831;-57
2022/05/27 00:08:13;;;;;;;;;;;;;;;21.70;51.86;100571.53;2065458;28;20434;-58
2022/05/27 00:09:13;;;;;;;;;;;;;;;21.69;51.93;100569.81;2069510;28;20379;-58
2022/05/27 00:10:14;;;;;;;;;;;;;;;21.69;51.83;100572.56;2065948;28;19921;-58
2022/05/27 00:11:15;;;;;;;;;;;;;;;21.69;51.75;100572.56;2064853;28;19917;-58
2022/05/27 00:12:15;;;;;;;;;;;;;;;21.70;52.06;100571.53;2068701;28;19928;-57
2022/05/27 00:13:15;;;;;;;;;;;;;;;21.70;52.02;100577.03;2067922;28;19956;-58
2022/05/27 00:14:16;;;;;;;;;;;;;;;21.70;52.13;100574.28;2064319;28;19968;-57
2022/05/27 00:15:16;;;;;;;;;;;;;;;21.69;52.04;100567.06;2067358;28;20475;-57
2022/05/27 00:16:17;;;;;;;;;;;;;;;21.70;51.87;100577.03;2066044;28;19924;-58
2022/05/27 00:17:17;;;;;;;;;;;;;;;21.70;52.03;100574.28;2067997;28;20568;-58
2022/05/27 00:18:17;;;;;;;;;;;;;;;21.70;51.85;100577.03;2067212;28;20280;-58
2022/05/27 00:19:18;;;;;;;;;;;;;;;21.70;52.10;100574.28;2068150;28;19979;-58
2022/05/27 00:20:18;;;;;;;;;;;;;;;21.70;52.02;100577.03;2065314;28;19971;-58
2022/05/27 00:21:19;;;;;;;;;;;;;;;21.69;52.15;100578.06;2067134;28;20203;-58
2022/05/27 00:22:19;;;;;;;;;;;;;;;21.69;51.90;100578.06;2065523;28;19920;-58
2022/05/27 00:23:20;;;;;;;;;;;;;;;21.69;51.94;100578.06;2069270;28;19928;-57
2022/05/27 00:24:21;;;;;;;;;;;;;;;21.68;51.94;100576.34;2069015;28;20258;-57
2022/05/27 00:25:22;;;;;;;;;;;;;;;21.69;52.05;100577.19;2065753;28;19909;-60
2022/05/27 00:26:22;;;;;;;;;;;;;;;21.69;52.10;100577.19;2067892;28;20377;-58
2022/05/27 00:27:23;;;;;;;;;;;;;;;21.67;52.16;100580.09;2065761;28;19945;-58
2022/05/27 00:28:23;;;;;;;;;;;;;;;21.68;51.96;100580.94;2064650;28;20009;-58
2022/05/27 00:29:23;;;;;;;;;;;;;;;21.67;52.06;100569.09;2067572;28;19916;-58
2022/05/27 00:30:24;;;;;;;;;;;;;;;21.67;51.92;100574.59;2066703;28;19921;-58
2022/05/27 00:31:24;;;;;;;;;;;;;;;21.67;52.03;100563.63;2066442;28;19909;-58
2022/05/27 00:32:25;;;;;;;;;;;;;;;21.66;52.25;100567.41;2066277;28;19917;-58
2022/05/27 00:33:25;;;;;;;;;;;;;;;21.66;52.16;100567.41;2064357;28;19920;-58
2022/05/27 00:34:25;;;;;;;;;;;;;;;21.66;52.11;100556.41;2063463;28;20430;-58
2022/05/27 00:35:26;;;;;;;;;;;;;;;21.66;52.05;100570.13;2067858;28;19917;-58
2022/05/27 00:36:26;;;;;;;;;;;;;;;21.66;52.10;100561.06;2063995;28;19921;-58
2022/05/27 00:37:26;;;;;;;;;;;;;;;21.66;52.29;100570.13;2066891;28;20247;-57
2022/05/27 00:38:27;;;;;;;;;;;;;;;21.66;52.13;100556.41;2067337;28;19928;-57
2022/05/27 00:39:27;;;;;;;;;;;;;;;21.66;51.89;100561.91;2066386;28;19917;-58
2022/05/27 00:40:34;;;;;;;;;;;;;;;21.66;52.17;100553.69;2065158;28;19928;-57
2022/05/27 00:41:35;;;;;;;;;;;;;;;21.67;52.08;100558.13;2063385;28;19941;-58
2022/05/27 00:42:39;;;;;;;;;;;;;;;21.67;51.88;100552.66;2063541;28;20279;-57
2022/05/27 00:43:41;;;;;;;;;;;;;;;21.67;52.11;100560.03;2067050;28;20347;-58
2022/05/27 00:44:41;;;;;;;;;;;;;;;21.66;52.14;100555.56;2063391;28;20331;-57
2022/05/27 00:45:43;;;;;;;;;;;;;;;21.66;52.00;100556.41;2067357;28;20117;-58
2022/05/27 00:46:44;;;;;;;;;;;;;;;21.66;52.09;100556.41;2068692;28;19924;-58
2022/05/27 00:47:46;;;;;;;;;;;;;;;21.66;52.14;100556.41;2075026;28;19913;-58
2022/05/27 00:48:48;;;;;;;;;;;;;;;21.66;52.22;100550.94;2075004;28;19982;-57
2022/05/27 00:49:51;;;;;;;;;;;;;;;21.66;52.10;100550.94;2065131;28;20818;-58
2022/05/27 00:50:52;;;;;;;;;;;;;;;21.67;52.10;100557.28;2069081;28;20011;-58
2022/05/27 00:52:06;;;;;;;;;;;;;;;21.66;52.21;100553.69;2067994;28;19917;-57
2022/05/27 00:53:07;;;;;;;;;;;;;;;21.66;52.13;100545.44;2063404;28;20314;-58
2022/05/27 00:54:10;;;;;;;;;;;;;;;21.66;52.20;100550.94;2066565;28;19938;-58
2022/05/27 00:55:13;;;;;;;;;;;;;;;21.66;52.19;100550.06;2066499;28;19917;-58
2022/05/27 00:56:15;;;;;;;;;;;;;;;21.66;52.03;100550.94;2063623;28;19927;-58
2022/05/27 00:57:22;;;;;;;;;;;;;;;21.66;52.18;100547.34;2065375;28;20058;-58
2022/05/27 00:58:49;;;;;;;;;;;;;;;21.65;52.37;100549.19;2066679;28;19913;-58
2022/05/27 00:59:58;;;;;;;;;;;;;;;21.64;52.36;100552.97;2065721;28;20336;-58
2022/05/27 01:00:59;;;;;;;;;;;;;;;21.65;52.17;100554.69;2064920;28;19921;-59
2022/05/27 01:01:59;;;;;;;;;;;;;;;21.64;52.36;100555.72;2067936;28;19936;-58
2022/05/27 01:03:01;;;;;;;;;;;;;;;21.65;52.23;100559.31;2060637;28;19936;-58
2022/05/27 01:04:02;;;;;;;;;;;;;;;21.64;52.00;100552.97;2067053;28;19925;-58
2022/05/27 01:05:03;;;;;;;;;;;;;;;21.64;52.13;100550.22;2066380;28;20012;-58
2022/05/27 01:06:04;;;;;;;;;;;;;;;21.64;52.17;100552.97;2066973;28;19925;-57
2022/05/27 01:07:05;;;;;;;;;;;;;;;21.64;52.42;100552.97;2067661;28;19913;-57
2022/05/27 01:08:06;;;;;;;;;;;;;;;21.64;52.09;100546.63;2065108;28;20120;-58
2022/05/27 01:09:07;;;;;;;;;;;;;;;21.63;52.38;100551.22;2068555;28;19924;-57
2022/05/27 01:10:09;;;;;;;;;;;;;;;21.62;52.31;100549.50;2067005;28;19923;-58
2022/05/27 01:11:33;;;;;;;;;;;;;;;21.63;51.91;100545.72;2066126;28;19910;-58
2022/05/27 01:12:46;;;;;;;;;;;;;;;21.62;52.28;100546.75;2067822;28;21179;-57
2022/05/27 01:14:05;;;;;;;;;;;;;;;21.64;52.15;100543.88;2068099;28;20346;-58
2022/05/27 01:15:24;;;;;;;;;;;;;;;21.63;52.03;100537.50;2066549;28;19921;-57
2022/05/27 01:16:43;;;;;;;;;;;;;;;21.63;52.25;100537.50;2068624;28;20671;-58
2022/05/27 01:18:04;;;;;;;;;;;;;;;21.63;52.07;100534.75;2064876;28;20015;-58
2022/05/27 01:21:00;;;;;;;;;;;;;;;21.62;52.52;100538.53;2063614;28;19909;-58
2022/05/27 01:22:19;;;;;;;;;;;;;;;21.63;52.31;100534.75;2063801;28;19925;-57
2022/05/27 01:23:22;;;;;;;;;;;;;;;21.64;52.29;100536.50;2064072;28;19917;-57
2022/05/27 01:24:34;;;;;;;;;;;;;;;21.63;52.43;100534.75;2063662;28;19971;-58
2022/05/27 01:25:53;;;;;;;;;;;;;;;21.63;52.59;100540.25;2062811;28;19919;-57
2022/05/27 01:27:02;;;;;;;;;;;;;;;21.63;52.41;100534.75;2065248;28;19955;-58
2022/05/27 01:28:21;;;;;;;;;;;;;;;21.64;52.35;100532.91;2065440;28;19925;-58
2022/05/27 01:29:22;;;;;;;;;;;;;;;21.63;52.67;100534.75;2062609;28;20020;-57
2022/05/27 01:30:23;;;;;;;;;;;;;;;21.62;52.48;100538.53;2064437;28;20464;-57
2022/05/27 01:31:33;;;;;;;;;;;;;;;21.62;52.60;100533.91;2071144;28;19971;-58
2022/05/27 01:32:33;;;;;;;;;;;;;;;21.61;52.38;100536.81;2073647;28;19920;-58
2022/05/27 01:34:00;;;;;;;;;;;;;;;21.61;52.48;100534.94;2067676;28;19925;-58
2022/05/27 01:35:00;;;;;;;;;;;;;;;21.61;52.23;100536.81;2057826;28;19943;-57
2022/05/27 01:36:00;;;;;;;;;;;;;;;21.60;52.33;100535.94;2073265;28;20636;-57
2022/05/27 01:37:06;;;;;;;;;;;;;;;21.60;52.57;100535.09;2068148;28;20592;-57
2022/05/27 01:38:17;;;;;;;;;;;;;;;21.61;52.30;100536.81;2070407;28;19921;-58
2022/05/27 01:39:24;;;;;;;;;;;;;;;21.61;52.37;100536.81;2070627;28;19920;-57
2022/05/27 01:40:39;;;;;;;;;;;;;;;21.59;52.39;100531.47;2066685;28;19920;-58
2022/05/27 01:41:43;;;;;;;;;;;;;;;21.60;52.47;100535.94;2066353;28;19921;-59
2022/05/27 01:42:54;;;;;;;;;;;;;;;21.61;52.61;100534.09;2070741;28;19917;-57
2022/05/27 01:43:59;;;;;;;;;;;;;;;21.60;52.26;100529.59;2070839;28;19917;-58
2022/05/27 01:45:03;;;;;;;;;;;;;;;21.61;52.26;100536.81;2066561;28;19927;-58
2022/05/27 01:46:15;;;;;;;;;;;;;;;21.60;52.27;100524.97;2071028;28;20146;-58
2022/05/27 01:47:21;;;;;;;;;;;;;;;21.60;52.49;100529.59;2079414;28;19999;-57
2022/05/27 01:48:31;;;;;;;;;;;;;;;21.60;52.48;100529.59;2064799;28;20356;-58
2022/05/27 01:49:34;;;;;;;;;;;;;;;21.60;52.54;100530.44;2072883;28;19909;-58
2022/05/27 01:50:43;;;;;;;;;;;;;;;21.61;52.28;100534.09;2063115;28;20437;-57
2022/05/27 01:51:46;;;;;;;;;;;;;;;21.61;52.40;100531.34;2065396;28;20003;-58
2022/05/27 01:52:52;;;;;;;;;;;;;;;21.60;52.31;100521.38;2069572;28;19917;-58
2022/05/27 01:53:52;;;;;;;;;;;;;;;21.61;52.42;100525.84;2068727;28;20382;-57
2022/05/27 01:55:00;;;;;;;;;;;;;;;21.61;52.57;100523.09;2065998;28;19940;-58
2022/05/27 01:56:12;;;;;;;;;;;;;;;21.61;52.34;100517.63;2067636;28;19978;-58
2022/05/27 01:57:33;;;;;;;;;;;;;;;21.60;52.62;100515.88;2067486;28;19925;-57
2022/05/27 01:58:36;;;;;;;;;;;;;;;21.61;52.80;100514.88;2067132;28;19967;-57
2022/05/27 01:59:57;;;;;;;;;;;;;;;21.61;52.55;100514.88;2075097;28;20731;-58
2022/05/27 02:00:57;;;;;;;;;;;;;;;21.59;52.36;100514.16;2066042;28;19921;-58
2022/05/27 02:02:01;;;;;;;;;;;;;;;21.60;52.47;100515.88;2066031;28;19917;-57
2022/05/27 02:03:14;;;;;;;;;;;;;;;21.60;52.32;100510.41;2070168;28;19937;-57
2022/05/27 02:04:20;;;;;;;;;;;;;;;21.60;52.43;100513.13;2063633;28;19944;-57
2022/05/27 02:05:40;;;;;;;;;;;;;;;21.60;52.78;100519.47;2065291;28;20135;-58
2022/05/27 02:06:50;;;;;;;;;;;;;;;21.59;52.51;100508.69;2067768;28;20311;-58
2022/05/27 02:07:50;;;;;;;;;;;;;;;;;;2067328;28;19921;-58
2022/05/27 02:08:51;;;;;;;;;;;;;;;;;;2066680;28;20267;-58
2022/05/27 02:09:51;;;;;;;;;;;;;;;;;;2065312;28;19921;-57
2022/05/27 02:10:54;;;;;;;;;;;;;;;21.59;52.63;100505.94;2069204;28;19921;-58
2022/05/27 02:11:55;;;;;;;;;;;;;;;;;;2068336;28;19917;-58
2022/05/27 02:12:55;;;;;;;;;;;;;;;;;;2063622;28;19928;-57
2022/05/27 02:13:59;;;;;;;;;;;;;;;21.58;52.51;100504.19;2062444;28;19920;-57
2022/05/27 02:15:02;;;;;;;;;;;;;;;21.57;52.50;100508.81;2067328;28;19909;-58
2022/05/27 02:16:03;;;;;;;;;;;;;;;21.56;52.65;100512.59;2067838;28;19963;-57
2022/05/27 02:17:06;;;;;;;;;;;;;;;21.56;52.50;100507.13;2069161;28;19967;-58
2022/05/27 02:18:13;;;;;;;;;;;;;;;21.57;52.35;100507.97;2066631;28;19929;-58
2022/05/27 02:19:26;;;;;;;;;;;;;;;21.57;52.57;100507.97;2065594;28;20469;-58
2022/05/27 02:20:30;;;;;;;;;;;;;;;21.57;52.40;100502.47;2061508;28;19935;-56
2022/05/27 02:21:33;;;;;;;;;;;;;;;21.57;52.48;100499.75;2067234;28;21197;-56
2022/05/27 02:22:36;;;;;;;;;;;;;;;21.56;52.52;100495.28;2063087;28;19975;-56
2022/05/27 02:23:39;;;;;;;;;;;;;;;21.58;52.25;100498.72;2069797;28;19937;-58
2022/05/27 02:24:41;;;;;;;;;;;;;;;21.57;52.51;100503.34;2069240;28;19974;-58
2022/05/27 02:25:44;;;;;;;;;;;;;;;21.57;52.42;100497.00;2067535;28;20199;-58
2022/05/27 02:26:48;;;;;;;;;;;;;;;21.57;52.56;100497.00;2069033;28;20257;-58
2022/05/27 02:27:54;;;;;;;;;;;;;;;21.57;52.65;100497.00;2065479;28;19947;-57
2022/05/27 02:29:04;;;;;;;;;;;;;;;21.57;52.77;100495.09;2064143;28;19920;-57
2022/05/27 02:30:07;;;;;;;;;;;;;;;21.59;52.41;100500.44;2069048;28;19920;-57
2022/05/27 02:31:07;;;;;;;;;;;;;;;;;;2064766;28;19924;-58
2022/05/27 02:32:09;;;;;;;;;;;;;;;21.57;52.46;100500.59;2069465;28;19925;-58
2022/05/27 02:35:57;;;;;;;;;;;;;;;21.58;52.63;100495.97;2065595;28;20023;-57
2022/05/27 02:37:07;;;;;;;;;;;;;;;21.57;52.78;100497.00;2069152;28;19917;-58
2022/05/27 02:38:07;;;;;;;;;;;;;;;21.57;52.70;100491.50;2069500;28;19924;-58
2022/05/27 02:39:08;;;;;;;;;;;;;;;21.56;52.61;100500.78;2067101;28;20033;-58
2022/05/27 02:40:22;;;;;;;;;;;;;;;21.57;52.72;100497.00;2067087;28;19968;-56
2022/05/27 02:41:30;;;;;;;;;;;;;;;21.56;52.68;100496.13;2065386;28;20799;-56
2022/05/27 02:42:37;;;;;;;;;;;;;;;21.56;52.58;100500.78;2065094;28;19922;-55
2022/05/27 02:43:47;;;;;;;;;;;;;;;21.56;52.50;100498.88;2067914;28;20326;-58
2022/05/27 02:45:05;;;;;;;;;;;;;;;21.56;52.51;100498.03;2065091;28;19963;-58
2022/05/27 02:46:22;;;;;;;;;;;;;;;21.55;52.77;100494.41;2070141;28;20101;-58
2022/05/27 02:47:25;;;;;;;;;;;;;;;21.55;52.39;100493.53;2068455;28;19913;-57
2022/05/27 02:48:36;;;;;;;;;;;;;;;21.54;52.81;100492.69;2073010;28;20014;-58
2022/05/27 02:49:51;;;;;;;;;;;;;;;21.55;52.59;100493.53;2073572;28;20625;-57
2022/05/27 02:51:04;;;;;;;;;;;;;;;21.54;52.68;100498.16;2073940;28;19919;-58
2022/05/27 02:52:13;;;;;;;;;;;;;;;21.54;52.75;100489.94;2063911;28;19917;-58
2022/05/27 02:53:13;;;;;;;;;;;;;;;21.54;52.83;100497.31;2066145;28;19917;-57
2022/05/27 02:54:23;;;;;;;;;;;;;;;21.54;52.73;100489.94;2065988;28;20018;-58
2022/05/27 02:55:26;;;;;;;;;;;;;;;21.54;52.74;100486.34;2064622;28;20278;-57
2022/05/27 02:56:36;;;;;;;;;;;;;;;21.54;52.66;100492.69;2065656;28;19932;-57
2022/05/27 02:57:36;;;;;;;;;;;;;;;21.54;52.72;100486.34;2068025;28;19921;-57
2022/05/27 02:58:37;;;;;;;;;;;;;;;21.54;52.72;100491.84;2066452;28;19921;-58
2022/05/27 02:59:38;;;;;;;;;;;;;;;21.54;52.76;100486.34;2067803;28;19925;-58
2022/05/27 03:00:39;;;;;;;;;;;;;;;21.54;52.62;100483.59;2065361;28;19997;-57
2022/05/27 03:01:39;;;;;;;;;;;;;;;21.54;52.63;100480.88;2063258;28;19917;-58
2022/05/27 03:02:39;;;;;;;;;;;;;;;21.55;52.73;100488.06;2063710;28;20543;-57
2022/05/27 03:03:40;;;;;;;;;;;;;;;21.54;52.69;100476.22;2066828;28;20724;-56
2022/05/27 03:04:49;;;;;;;;;;;;;;;21.55;52.85;100477.09;2066136;28;20019;-58
2022/05/27 03:05:56;;;;;;;;;;;;;;;21.54;52.75;100475.38;2063849;28;19985;-57
2022/05/27 03:07:16;;;;;;;;;;;;;;;21.54;52.67;100475.38;2069194;28;20326;-58
2022/05/27 03:08:36;;;;;;;;;;;;;;;21.53;52.55;100473.63;2067887;28;20242;-58
2022/05/27 03:09:46;;;;;;;;;;;;;;;21.54;52.83;100475.38;2062850;28;19973;-57
2022/05/27 03:10:57;;;;;;;;;;;;;;;21.54;52.72;100469.88;2067014;28;20000;-57
2022/05/27 03:12:02;;;;;;;;;;;;;;;21.54;52.60;100469.88;2069806;28;19917;-58
2022/05/27 03:13:02;;;;;;;;;;;;;;;21.54;52.71;100473.50;2063279;28;19955;-59
2022/05/27 03:14:02;;;;;;;;;;;;;;;21.54;52.76;100472.63;2063425;28;19909;-58
2022/05/27 03:15:21;;;;;;;;;;;;;;;21.53;52.91;100469.00;2067376;28;19909;-58
2022/05/27 03:16:22;;;;;;;;;;;;;;;21.53;52.65;100462.66;2065450;28;19913;-57
2022/05/27 03:17:27;;;;;;;;;;;;;;;21.52;52.89;100470.03;2065970;28;19921;-58
2022/05/27 03:18:37;;;;;;;;;;;;;;;21.52;52.73;100463.69;2069514;28;20231;-58
2022/05/27 03:19:46;;;;;;;;;;;;;;;21.52;52.77;100460.94;2066988;28;20219;-58
2022/05/27 03:20:49;;;;;;;;;;;;;;;21.52;52.68;100464.53;2067561;28;20527;-57
2022/05/27 03:22:05;;;;;;;;;;;;;;;21.52;52.79;100460.94;2067735;28;20384;-58
2022/05/27 03:23:11;;;;;;;;;;;;;;;21.51;52.61;100460.09;2070022;28;19921;-58
2022/05/27 03:24:12;;;;;;;;;;;;;;;21.51;52.98;100462.84;2071162;28;20003;-58
2022/05/27 03:25:18;;;;;;;;;;;;;;;21.51;52.82;100462.84;2069394;28;19967;-58
2022/05/27 03:26:34;;;;;;;;;;;;;;;21.51;52.75;100459.22;2071089;28;19921;-58
2022/05/27 03:27:46;;;;;;;;;;;;;;;21.51;52.64;100468.31;2068119;28;19975;-58
2022/05/27 03:29:07;;;;;;;;;;;;;;;21.51;52.62;100472.91;2064092;28;19920;-59
2022/05/27 03:30:10;;;;;;;;;;;;;;;21.52;52.77;100471.91;2065925;28;19952;-58
2022/05/27 03:31:25;;;;;;;;;;;;;;;21.51;52.97;100464.69;2070181;28;19916;-58
2022/05/27 03:32:43;;;;;;;;;;;;;;;21.52;52.95;100460.94;2065546;28;20022;-58
2022/05/27 03:33:44;;;;;;;;;;;;;;;21.51;52.66;100461.94;2063044;28;20217;-58
2022/05/27 03:34:49;;;;;;;;;;;;;;;21.51;52.92;100465.59;2070029;28;20231;-58
2022/05/27 03:36:16;;;;;;;;;;;;;;;21.51;52.95;100459.22;2068608;28;19912;-58
2022/05/27 03:37:20;;;;;;;;;;;;;;;21.52;52.95;100466.44;2063483;28;20438;-57
2022/05/27 03:38:26;;;;;;;;;;;;;;;21.51;52.94;100460.09;2066078;28;20707;-58
2022/05/27 03:39:35;;;;;;;;;;;;;;;21.51;52.89;100462.84;2073634;28;20637;-58
2022/05/27 03:41:08;;;;;;;;;;;;;;;21.51;52.73;100453.72;2065668;28;19939;-58
2022/05/27 03:42:09;;;;;;;;;;;;;;;21.51;53.08;100459.22;2057050;28;20016;-58
2022/05/27 03:43:10;;;;;;;;;;;;;;;21.51;52.88;100459.22;2063072;28;20015;-58
2022/05/27 03:44:19;;;;;;;;;;;;;;;21.51;53.02;100453.72;2067933;28;19913;-58
2022/05/27 03:45:21;;;;;;;;;;;;;;;21.51;53.02;100459.22;2063857;28;19913;-58
2022/05/27 03:46:26;;;;;;;;;;;;;;;21.52;52.68;100460.94;2065792;28;19963;-57
2022/05/27 03:47:27;;;;;;;;;;;;;;;21.51;52.75;100459.22;2067150;28;19917;-57
2022/05/27 03:48:28;;;;;;;;;;;;;;;21.50;53.19;100462.97;2067964;28;19917;-58
2022/05/27 03:49:29;;;;;;;;;;;;;;;21.50;52.96;100454.75;2068932;28;19924;-59
2022/05/27 03:50:29;;;;;;;;;;;;;;;21.50;53.21;100449.25;2067976;28;20421;-57
2022/05/27 03:51:33;;;;;;;;;;;;;;;21.50;52.89;100454.75;2063868;28;21233;-58
2022/05/27 03:52:41;;;;;;;;;;;;;;;21.49;53.10;100453.91;2064798;28;19927;-58
2022/05/27 03:55:01;;;;;;;;;;;;;;;21.49;53.06;100445.66;2069672;28;19925;-58
2022/05/27 03:56:01;;;;;;;;;;;;;;;21.49;52.74;100448.41;2066405;28;20379;-58
2022/05/27 03:57:02;;;;;;;;;;;;;;;21.49;53.07;100444.81;2071413;28;19909;-58
2022/05/27 03:58:02;;;;;;;;;;;;;;;21.48;53.12;100448.56;2068307;28;19909;-58
2022/05/27 03:59:03;;;;;;;;;;;;;;;21.48;52.93;100454.91;2069217;28;20220;-58
2022/05/27 04:00:05;;;;;;;;;;;;;;;21.48;53.07;100459.53;2070429;28;20000;-58
2022/05/27 04:01:06;;;;;;;;;;;;;;;21.49;52.92;100458.53;2065212;28;20004;-58
2022/05/27 04:02:06;;;;;;;;;;;;;;;21.49;52.68;100455.78;2067745;28;19928;-58
2022/05/27 04:03:06;;;;;;;;;;;;;;;21.49;52.81;100464.00;2070479;28;20496;-58
2022/05/27 04:04:08;;;;;;;;;;;;;;;21.49;52.75;100462.13;2069228;28;20312;-58
2022/05/27 04:05:10;;;;;;;;;;;;;;;21.50;53.02;100460.25;2072948;28;20371;-58
2022/05/27 04:06:10;;;;;;;;;;;;;;;21.50;53.11;100468.47;2065451;28;19921;-57
2022/05/27 04:07:11;;;;;;;;;;;;;;;21.49;53.14;100464.00;2065814;28;20237;-58
2022/05/27 04:08:11;;;;;;;;;;;;;;;21.49;52.89;100461.28;2068541;28;20376;-58
2022/05/27 04:09:11;;;;;;;;;;;;;;;21.48;52.99;100460.38;2066867;28;20110;-57
2022/05/27 04:10:12;;;;;;;;;;;;;;;21.48;53.01;100459.53;2068081;28;19921;-58
2022/05/27 04:11:12;;;;;;;;;;;;;;;21.49;53.08;100470.34;2070172;28;20267;-58
2022/05/27 04:12:13;;;;;;;;;;;;;;;21.48;53.21;100462.28;2066298;28;19967;-57
2022/05/27 04:13:13;;;;;;;;;;;;;;;21.49;53.13;100464.88;2070150;28;19967;-58
2022/05/27 04:14:14;;;;;;;;;;;;;;;21.49;53.11;100467.63;2064913;28;20420;-58
2022/05/27 04:15:14;;;;;;;;;;;;;;;21.49;52.94;100464.00;2068306;28;19948;-58
2022/05/27 04:16:15;;;;;;;;;;;;;;;21.49;53.21;100469.50;2070238;28;19932;-58
2022/05/27 04:17:30;;;;;;;;;;;;;;;21.49;52.84;100466.75;2068479;28;19951;-58
2022/05/27 04:18:30;;;;;;;;;;;;;;;21.50;53.08;100468.47;2069296;28;19924;-58
2022/05/27 04:19:30;;;;;;;;;;;;;;;21.47;53.09;100463.31;2069348;28;19906;-57
2022/05/27 04:20:31;;;;;;;;;;;;;;;21.47;53.01;100461.41;2067930;28;19940;-58
2022/05/27 04:21:31;;;;;;;;;;;;;;;21.48;53.07;100463.13;2068968;28;20387;-58
2022/05/27 04:22:32;;;;;;;;;;;;;;;21.48;53.23;100465.00;2070214;28;20435;-58
2022/05/27 04:23:32;;;;;;;;;;;;;;;21.49;52.91;100466.75;2067548;28;20053;-58
2022/05/27 04:24:33;;;;;;;;;;;;;;;21.48;53.06;100467.75;2068730;28;19916;-58
2022/05/27 04:25:33;;;;;;;;;;;;;;;21.47;53.14;100463.31;2068086;28;19917;-57
2022/05/27 04:26:34;;;;;;;;;;;;;;;21.48;53.15;100470.50;2065623;28;20008;-57
2022/05/27 04:27:35;;;;;;;;;;;;;;;21.45;53.10;100462.59;2068464;28;20391;-58
2022/05/27 04:28:35;;;;;;;;;;;;;;;21.45;53.13;100455.22;2067452;28;19921;-58
2022/05/27 04:29:43;;;;;;;;;;;;;;;21.46;53.21;100461.56;2067891;28;20585;-57
2022/05/27 04:30:45;;;;;;;;;;;;;;;21.45;53.06;100465.34;2069317;28;20323;-58
2022/05/27 04:31:45;;;;;;;;;;;;;;;21.45;53.09;100459.84;2063834;28;20125;-58
2022/05/27 04:32:46;;;;;;;;;;;;;;;21.44;52.95;100464.47;2068866;28;19927;-59
2022/05/27 04:33:46;;;;;;;;;;;;;;;21.45;52.95;100462.59;2072849;28;19983;-58
2022/05/27 04:34:47;;;;;;;;;;;;;;;21.44;53.18;100469.09;2074328;28;19931;-58
2022/05/27 04:35:47;;;;;;;;;;;;;;;21.45;52.94;100468.06;2065027;28;19925;-58
2022/05/27 04:36:47;;;;;;;;;;;;;;;21.44;53.10;100458.13;2061925;28;19964;-57
2022/05/27 04:37:48;;;;;;;;;;;;;;;21.45;52.78;100462.59;2064170;28;20224;-58
2022/05/27 04:38:49;;;;;;;;;;;;;;;21.45;53.15;100462.59;2065844;28;20340;-58
2022/05/27 04:39:49;;;;;;;;;;;;;;;21.46;53.16;100464.31;2063223;28;19928;-58
2022/05/27 04:40:50;;;;;;;;;;;;;;;21.46;53.06;100467.03;2066270;28;19925;-58
2022/05/27 04:41:50;;;;;;;;;;;;;;;21.46;52.95;100472.53;2067812;28;20294;-57
2022/05/27 04:42:50;;;;;;;;;;;;;;;21.45;52.86;100477.16;2063733;28;19940;-57
2022/05/27 04:43:51;;;;;;;;;;;;;;;21.46;52.98;100472.53;2065555;28;20424;-57
2022/05/27 04:44:51;;;;;;;;;;;;;;;21.46;53.03;100472.53;2071440;28;20000;-58
2022/05/27 04:45:51;;;;;;;;;;;;;;;21.46;53.15;100478.00;2073829;28;19931;-58
2022/05/27 04:46:52;;;;;;;;;;;;;;;21.45;53.13;100476.31;2065234;28;19913;-57
2022/05/27 04:47:52;;;;;;;;;;;;;;;21.45;53.16;100474.41;2064787;28;19928;-58
2022/05/27 04:48:52;;;;;;;;;;;;;;;21.45;53.11;100473.56;2065170;28;19925;-57
2022/05/27 04:49:56;;;;;;;;;;;;;;;21.47;53.31;100477.00;2066032;28;19921;-58
2022/05/27 04:50:56;;;;;;;;;;;;;;;21.45;53.16;100485.38;2062864;28;19921;-58
2022/05/27 04:51:57;;;;;;;;;;;;;;;21.46;53.23;100483.50;2064648;28;20315;-58
2022/05/27 04:52:57;;;;;;;;;;;;;;;21.45;53.21;100485.38;2062415;28;19929;-58
2022/05/27 04:53:57;;;;;;;;;;;;;;;21.45;53.03;100484.53;2064179;28;19924;-58
2022/05/27 04:54:59;;;;;;;;;;;;;;;21.45;53.49;100484.53;2068877;28;19921;-58
2022/05/27 04:55:59;;;;;;;;;;;;;;;21.44;53.25;100486.41;2064088;28;19917;-58
2022/05/27 04:57:00;;;;;;;;;;;;;;;21.44;53.49;100488.31;2065608;28;19932;-57
2022/05/27 04:58:00;;;;;;;;;;;;;;;21.44;53.15;100486.41;2072314;28;19921;-58
2022/05/27 04:59:00;;;;;;;;;;;;;;;21.44;53.09;100491.06;2062208;28;20016;-58
2022/05/27 05:00:04;;;;;;;;;;;;;;;21.44;53.28;100485.56;2063259;28;19917;-58
2022/05/27 05:01:04;;;;;;;;;;;;;;;21.43;53.19;100495.66;2060648;28;19968;-57
2022/05/27 05:02:04;;;;;;;;;;;;;;;21.44;53.47;100493.78;2063902;28;19917;-58
2022/05/27 05:03:05;;;;;;;;;;;;;;;21.43;53.50;100495.66;2063457;28;19925;-58
2022/05/27 05:04:05;;;;;;;;;;;;;;;21.43;53.34;100494.78;2065057;28;19925;-58
2022/05/27 05:05:06;;;;;;;;;;;;;;;21.44;53.07;100493.78;2066381;28;20073;-57
2022/05/27 05:06:06;;;;;;;;;;;;;;;21.43;53.36;100486.56;2062417;28;19922;-58
2022/05/27 05:07:08;;;;;;;;;;;;;;;21.42;53.27;100482.97;2064104;28;20338;-58
2022/05/27 05:08:11;;;;;;;;;;;;;;;21.42;53.29;100493.94;2069600;28;19916;-58
2022/05/27 05:09:11;;;;;;;;;;;;;;;21.41;53.36;100492.19;2067866;28;19917;-58
2022/05/27 05:10:13;;;;;;;;;;;;;;;21.42;53.33;100491.19;2065789;28;19963;-57
2022/05/27 05:11:13;;;;;;;;;;;;;;;21.43;53.35;100494.78;2068070;28;20019;-58
2022/05/27 05:12:13;;;;;;;;;;;;;;;21.42;53.21;100488.44;2068706;28;19909;-57
2022/05/27 05:13:14;;;;;;;;;;;;;;;21.43;53.21;100492.06;2066505;28;20274;-57
2022/05/27 05:14:14;;;;;;;;;;;;;;;21.43;53.17;100489.31;2067908;28;19944;-57
2022/05/27 05:15:15;;;;;;;;;;;;;;;21.43;53.21;100490.16;2067870;28;19959;-58
2022/05/27 05:16:15;;;;;;;;;;;;;;;21.43;53.34;100490.16;2068709;28;19910;-58
2022/05/27 05:17:16;;;;;;;;;;;;;;;21.43;53.32;100489.31;2066346;28;20006;-57
2022/05/27 05:18:16;;;;;;;;;;;;;;;21.42;53.41;100488.44;2066883;28;20571;-57
2022/05/27 05:19:16;;;;;;;;;;;;;;;21.43;53.13;100489.31;2069605;28;20278;-57
2022/05/27 05:20:18;;;;;;;;;;;;;;;21.43;53.46;100494.78;2068473;28;19917;-58
2022/05/27 05:21:19;;;;;;;;;;;;;;;21.42;53.43;100488.44;2065304;28;20267;-58
2022/05/27 05:22:20;;;;;;;;;;;;;;;21.41;53.47;100486.72;2065056;28;20001;-58
2022/05/27 05:23:20;;;;;;;;;;;;;;;21.42;53.43;100488.44;2069735;28;19928;-57
2022/05/27 05:24:21;;;;;;;;;;;;;;;21.43;53.51;100494.78;2068125;28;20005;-57
2022/05/27 05:25:23;;;;;;;;;;;;;;;21.43;53.16;100494.78;2067047;28;19933;-58
2022/05/27 05:26:23;;;;;;;;;;;;;;;21.44;53.43;100502.03;2070229;28;19933;-58
2022/05/27 05:27:25;;;;;;;;;;;;;;;21.43;53.41;100494.78;2065893;28;20570;-58
2022/05/27 05:28:25;;;;;;;;;;;;;;;21.42;53.38;100498.56;2069130;28;19924;-57
2022/05/27 05:29:26;;;;;;;;;;;;;;;21.42;53.54;100496.69;2070963;28;20414;-58
2022/05/27 05:30:26;;;;;;;;;;;;;;;21.42;53.24;100502.16;2073067;28;19955;-57
2022/05/27 05:31:26;;;;;;;;;;;;;;;21.42;53.44;100493.09;2078970;28;20453;-58
2022/05/27 05:32:27;;;;;;;;;;;;;;;21.42;53.35;100498.56;2069358;28;19921;-58
2022/05/27 05:33:27;;;;;;;;;;;;;;;21.42;53.36;100504.91;2067858;28;19952;-58
2022/05/27 05:34:27;;;;;;;;;;;;;;;21.40;53.39;100496.81;2069540;28;20111;-58
2022/05/27 05:35:28;;;;;;;;;;;;;;;21.41;53.46;100492.19;2066788;28;19964;-58
2022/05/27 05:36:32;;;;;;;;;;;;;;;21.41;53.62;100497.69;2070242;28;19924;-57